sensor_id;sensor_type;location;lat;lon;timestamp;P1;durP1;ratioP1;P2;durP2;ratioP2
18893;SDS011;9579;49.488;8.226;2023-08-17T00:02:11;2.58;;;2.38;;
18893;SDS011;9579;49.488;8.226;2023-08-17T00:04:58;3.55;;;2.90;;
18893;SDS011;9579;49.488;8.226;2023-08-17T00:07:47;3.25;;;3.00;;
18893;SDS011;9579;49.488;8.226;2023-08-17T00:10:34;3.15;;;2.85;;
18893;SDS011;9579;49.488;8.226;2023-08-17T00:13:24;3.72;;;3.10;;
18893;SDS011;9579;49.488;8.226;2023-08-17T00:16:11;3.13;;;2.83;;
18893;SDS011;9579;49.488;8.226;2023-08-17T00:18:58;3.40;;;3.10;;
18893;SDS011;9579;49.488;8.226;2023-08-17T00:21:45;3.50;;;3.20;;
18893;SDS011;9579;49.488;8.226;2023-08-17T00:24:33;4.25;;;3.33;;
18893;SDS011;9579;49.488;8.226;2023-08-17T00:27:20;3.92;;;3.30;;
18893;SDS011;9579;49.488;8.226;2023-08-17T00:30:08;3.70;;;3.40;;
18893;SDS011;9579;49.488;8.226;2023-08-17T00:32:55;3.25;;;3.05;;
18893;SDS011;9579;49.488;8.226;2023-08-17T00:35:43;3.80;;;3.47;;
18893;SDS011;9579;49.488;8.226;2023-08-17T00:38:31;3.45;;;3.15;;
18893;SDS011;9579;49.488;8.226;2023-08-17T00:41:19;3.10;;;2.90;;
18893;SDS011;9579;49.488;8.226;2023-08-17T00:44:06;3.60;;;3.30;;
18893;SDS011;9579;49.488;8.226;2023-08-17T00:46:53;4.38;;;3.80;;
18893;SDS011;9579;49.488;8.226;2023-08-17T00:49:40;3.40;;;3.20;;
18893;SDS011;9579;49.488;8.226;2023-08-17T00:52:28;3.75;;;3.40;;
18893;SDS011;9579;49.488;8.226;2023-08-17T00:55:16;3.55;;;3.25;;
18893;SDS011;9579;49.488;8.226;2023-08-17T00:58:05;3.60;;;3.30;;
18893;SDS011;9579;49.488;8.226;2023-08-17T01:00:52;3.35;;;3.05;;
18893;SDS011;9579;49.488;8.226;2023-08-17T01:03:39;3.70;;;3.42;;
18893;SDS011;9579;49.488;8.226;2023-08-17T01:06:27;3.60;;;3.30;;
18893;SDS011;9579;49.488;8.226;2023-08-17T01:09:14;3.92;;;3.60;;
18893;SDS011;9579;49.488;8.226;2023-08-17T01:12:03;4.03;;;3.63;;
18893;SDS011;9579;49.488;8.226;2023-08-17T01:14:58;4.53;;;3.60;;
18893;SDS011;9579;49.488;8.226;2023-08-17T01:17:52;4.22;;;3.92;;
18893;SDS011;9579;49.488;8.226;2023-08-17T01:20:43;4.28;;;3.60;;
18893;SDS011;9579;49.488;8.226;2023-08-17T01:23:32;3.78;;;3.38;;
18893;SDS011;9579;49.488;8.226;2023-08-17T01:26:19;3.80;;;3.50;;
18893;SDS011;9579;49.488;8.226;2023-08-17T01:29:06;4.15;;;3.75;;
18893;SDS011;9579;49.488;8.226;2023-08-17T01:31:55;3.92;;;3.55;;
18893;SDS011;9579;49.488;8.226;2023-08-17T01:34:52;4.47;;;4.07;;
18893;SDS011;9579;49.488;8.226;2023-08-17T01:37:44;4.13;;;3.75;;
18893;SDS011;9579;49.488;8.226;2023-08-17T01:40:32;4.32;;;3.92;;
18893;SDS011;9579;49.488;8.226;2023-08-17T01:43:20;3.78;;;3.45;;
18893;SDS011;9579;49.488;8.226;2023-08-17T01:46:07;3.78;;;3.38;;
18893;SDS011;9579;49.488;8.226;2023-08-17T01:48:54;3.70;;;3.40;;
18893;SDS011;9579;49.488;8.226;2023-08-17T01:51:41;3.95;;;3.55;;
18893;SDS011;9579;49.488;8.226;2023-08-17T01:54:28;3.97;;;3.60;;
18893;SDS011;9579;49.488;8.226;2023-08-17T01:57:17;4.03;;;3.65;;
18893;SDS011;9579;49.488;8.226;2023-08-17T02:00:04;4.50;;;3.13;;
18893;SDS011;9579;49.488;8.226;2023-08-17T02:02:52;3.22;;;3.03;;
18893;SDS011;9579;49.488;8.226;2023-08-17T02:05:43;3.05;;;2.85;;
18893;SDS011;9579;49.488;8.226;2023-08-17T02:08:32;4.05;;;3.28;;
18893;SDS011;9579;49.488;8.226;2023-08-17T02:11:20;3.00;;;2.80;;
18893;SDS011;9579;49.488;8.226;2023-08-17T02:14:08;2.78;;;2.50;;
18893;SDS011;9579;49.488;8.226;2023-08-17T02:16:55;4.20;;;2.70;;
18893;SDS011;9579;49.488;8.226;2023-08-17T02:19:42;2.78;;;2.42;;
18893;SDS011;9579;49.488;8.226;2023-08-17T02:22:29;2.60;;;2.38;;
18893;SDS011;9579;49.488;8.226;2023-08-17T02:25:16;2.55;;;2.35;;
18893;SDS011;9579;49.488;8.226;2023-08-17T02:28:03;2.50;;;2.30;;
18893;SDS011;9579;49.488;8.226;2023-08-17T02:30:55;3.03;;;2.60;;
18893;SDS011;9579;49.488;8.226;2023-08-17T02:33:43;3.20;;;2.47;;
18893;SDS011;9579;49.488;8.226;2023-08-17T02:36:30;2.97;;;2.70;;
18893;SDS011;9579;49.488;8.226;2023-08-17T02:39:17;2.75;;;2.42;;
18893;SDS011;9579;49.488;8.226;2023-08-17T02:42:04;2.90;;;2.60;;
18893;SDS011;9579;49.488;8.226;2023-08-17T02:44:51;2.67;;;2.47;;
18893;SDS011;9579;49.488;8.226;2023-08-17T02:47:40;2.45;;;2.25;;
18893;SDS011;9579;49.488;8.226;2023-08-17T02:50:27;2.60;;;2.35;;
18893;SDS011;9579;49.488;8.226;2023-08-17T02:53:14;4.38;;;2.65;;
18893;SDS011;9579;49.488;8.226;2023-08-17T02:56:01;2.55;;;2.35;;
18893;SDS011;9579;49.488;8.226;2023-08-17T02:58:48;2.50;;;2.40;;
18893;SDS011;9579;49.488;8.226;2023-08-17T03:01:35;4.28;;;2.70;;
18893;SDS011;9579;49.488;8.226;2023-08-17T03:04:23;2.60;;;2.40;;
18893;SDS011;9579;49.488;8.226;2023-08-17T03:07:10;2.90;;;2.60;;
18893;SDS011;9579;49.488;8.226;2023-08-17T03:09:57;3.38;;;2.63;;
18893;SDS011;9579;49.488;8.226;2023-08-17T03:12:44;4.22;;;3.05;;
18893;SDS011;9579;49.488;8.226;2023-08-17T03:15:31;3.08;;;2.65;;
18893;SDS011;9579;49.488;8.226;2023-08-17T03:18:18;3.47;;;3.20;;
18893;SDS011;9579;49.488;8.226;2023-08-17T03:21:07;2.85;;;2.65;;
18893;SDS011;9579;49.488;8.226;2023-08-17T03:23:54;3.60;;;2.80;;
18893;SDS011;9579;49.488;8.226;2023-08-17T03:26:41;4.30;;;3.03;;
18893;SDS011;9579;49.488;8.226;2023-08-17T03:29:28;2.88;;;2.67;;
18893;SDS011;9579;49.488;8.226;2023-08-17T03:32:15;3.17;;;2.90;;
18893;SDS011;9579;49.488;8.226;2023-08-17T03:35:02;2.33;;;1.90;;
18893;SDS011;9579;49.488;8.226;2023-08-17T03:37:51;1.90;;;1.80;;
18893;SDS011;9579;49.488;8.226;2023-08-17T03:40:38;1.48;;;1.40;;
18893;SDS011;9579;49.488;8.226;2023-08-17T03:43:25;1.70;;;1.60;;
18893;SDS011;9579;49.488;8.226;2023-08-17T03:46:12;1.45;;;1.35;;
18893;SDS011;9579;49.488;8.226;2023-08-17T03:48:59;1.48;;;1.30;;
18893;SDS011;9579;49.488;8.226;2023-08-17T03:51:46;2.38;;;1.90;;
18893;SDS011;9579;49.488;8.226;2023-08-17T03:54:35;2.42;;;2.22;;
18893;SDS011;9579;49.488;8.226;2023-08-17T03:57:22;3.72;;;2.90;;
18893;SDS011;9579;49.488;8.226;2023-08-17T04:00:09;4.53;;;2.78;;
18893;SDS011;9579;49.488;8.226;2023-08-17T04:02:57;3.28;;;2.92;;
18893;SDS011;9579;49.488;8.226;2023-08-17T04:05:44;4.20;;;3.20;;
18893;SDS011;9579;49.488;8.226;2023-08-17T04:08:31;5.00;;;3.30;;
18893;SDS011;9579;49.488;8.226;2023-08-17T04:11:19;3.72;;;3.40;;
18893;SDS011;9579;49.488;8.226;2023-08-17T04:14:06;3.20;;;3.00;;
18893;SDS011;9579;49.488;8.226;2023-08-17T04:16:54;3.40;;;3.20;;
18893;SDS011;9579;49.488;8.226;2023-08-17T04:19:42;3.70;;;3.40;;
18893;SDS011;9579;49.488;8.226;2023-08-17T04:22:29;5.03;;;4.15;;
18893;SDS011;9579;49.488;8.226;2023-08-17T04:25:16;4.60;;;3.80;;
18893;SDS011;9579;49.488;8.226;2023-08-17T04:28:05;4.78;;;4.38;;
18893;SDS011;9579;49.488;8.226;2023-08-17T04:30:52;5.95;;;5.45;;
18893;SDS011;9579;49.488;8.226;2023-08-17T04:33:39;7.03;;;6.43;;
18893;SDS011;9579;49.488;8.226;2023-08-17T04:36:26;7.25;;;6.55;;
18893;SDS011;9579;49.488;8.226;2023-08-17T04:39:13;7.32;;;6.72;;
18893;SDS011;9579;49.488;8.226;2023-08-17T04:42:00;8.07;;;7.38;;
18893;SDS011;9579;49.488;8.226;2023-08-17T04:44:50;8.75;;;7.95;;
18893;SDS011;9579;49.488;8.226;2023-08-17T04:47:37;8.65;;;7.90;;
18893;SDS011;9579;49.488;8.226;2023-08-17T04:50:24;7.68;;;6.97;;
18893;SDS011;9579;49.488;8.226;2023-08-17T04:53:11;7.97;;;7.28;;
18893;SDS011;9579;49.488;8.226;2023-08-17T04:55:58;8.20;;;7.45;;
18893;SDS011;9579;49.488;8.226;2023-08-17T04:58:46;8.48;;;7.60;;
18893;SDS011;9579;49.488;8.226;2023-08-17T05:01:34;9.63;;;8.65;;
18893;SDS011;9579;49.488;8.226;2023-08-17T05:04:22;7.70;;;7.10;;
18893;SDS011;9579;49.488;8.226;2023-08-17T05:07:09;7.75;;;7.15;;
18893;SDS011;9579;49.488;8.226;2023-08-17T05:09:56;9.73;;;8.82;;
18893;SDS011;9579;49.488;8.226;2023-08-17T05:12:43;8.80;;;8.00;;
18893;SDS011;9579;49.488;8.226;2023-08-17T05:15:31;8.95;;;8.23;;
18893;SDS011;9579;49.488;8.226;2023-08-17T05:18:20;9.55;;;8.65;;
18893;SDS011;9579;49.488;8.226;2023-08-17T05:21:07;8.45;;;7.75;;
18893;SDS011;9579;49.488;8.226;2023-08-17T05:23:54;10.07;;;9.18;;
18893;SDS011;9579;49.488;8.226;2023-08-17T05:26:41;7.57;;;6.97;;
18893;SDS011;9579;49.488;8.226;2023-08-17T05:29:28;9.82;;;8.93;;
18893;SDS011;9579;49.488;8.226;2023-08-17T05:32:17;10.15;;;9.20;;
18893;SDS011;9579;49.488;8.226;2023-08-17T05:35:06;10.25;;;9.30;;
18893;SDS011;9579;49.488;8.226;2023-08-17T05:37:53;11.82;;;10.73;;
18893;SDS011;9579;49.488;8.226;2023-08-17T05:40:40;9.05;;;8.35;;
18893;SDS011;9579;49.488;8.226;2023-08-17T05:43:27;11.50;;;10.48;;
18893;SDS011;9579;49.488;8.226;2023-08-17T05:46:14;10.98;;;10.02;;
18893;SDS011;9579;49.488;8.226;2023-08-17T05:49:01;10.90;;;9.90;;
18893;SDS011;9579;49.488;8.226;2023-08-17T05:51:50;10.95;;;9.95;;
18893;SDS011;9579;49.488;8.226;2023-08-17T05:54:37;10.05;;;9.05;;
18893;SDS011;9579;49.488;8.226;2023-08-17T05:57:24;11.90;;;10.70;;
18893;SDS011;9579;49.488;8.226;2023-08-17T06:00:11;12.32;;;11.13;;
18893;SDS011;9579;49.488;8.226;2023-08-17T06:02:59;10.88;;;9.88;;
18893;SDS011;9579;49.488;8.226;2023-08-17T06:05:47;11.80;;;10.60;;
18893;SDS011;9579;49.488;8.226;2023-08-17T06:08:35;11.30;;;10.23;;
18893;SDS011;9579;49.488;8.226;2023-08-17T06:11:22;12.68;;;11.38;;
18893;SDS011;9579;49.488;8.226;2023-08-17T06:14:10;14.73;;;13.23;;
18893;SDS011;9579;49.488;8.226;2023-08-17T06:16:57;13.43;;;12.07;;
18893;SDS011;9579;49.488;8.226;2023-08-17T06:19:44;15.27;;;13.68;;
18893;SDS011;9579;49.488;8.226;2023-08-17T06:22:31;17.02;;;13.80;;
18893;SDS011;9579;49.488;8.226;2023-08-17T06:25:20;15.35;;;13.35;;
18893;SDS011;9579;49.488;8.226;2023-08-17T06:28:07;16.35;;;14.27;;
18893;SDS011;9579;49.488;8.226;2023-08-17T06:30:54;16.33;;;14.60;;
18893;SDS011;9579;49.488;8.226;2023-08-17T06:33:42;14.00;;;12.60;;
18893;SDS011;9579;49.488;8.226;2023-08-17T06:36:30;13.65;;;12.35;;
18893;SDS011;9579;49.488;8.226;2023-08-17T06:39:18;13.82;;;12.52;;
18893;SDS011;9579;49.488;8.226;2023-08-17T06:42:06;15.30;;;13.80;;
18893;SDS011;9579;49.488;8.226;2023-08-17T06:44:53;12.50;;;11.40;;
18893;SDS011;9579;49.488;8.226;2023-08-17T06:47:40;11.75;;;10.75;;
18893;SDS011;9579;49.488;8.226;2023-08-17T06:50:27;14.70;;;13.30;;
18893;SDS011;9579;49.488;8.226;2023-08-17T06:53:14;16.30;;;14.80;;
18893;SDS011;9579;49.488;8.226;2023-08-17T06:56:01;13.68;;;12.38;;
18893;SDS011;9579;49.488;8.226;2023-08-17T06:58:49;15.35;;;13.95;;
18893;SDS011;9579;49.488;8.226;2023-08-17T07:01:36;16.30;;;14.85;;
18893;SDS011;9579;49.488;8.226;2023-08-17T07:04:23;13.88;;;12.68;;
18893;SDS011;9579;49.488;8.226;2023-08-17T07:07:10;14.88;;;13.57;;
18893;SDS011;9579;49.488;8.226;2023-08-17T07:09:59;13.75;;;12.55;;
18893;SDS011;9579;49.488;8.226;2023-08-17T07:12:46;16.95;;;15.35;;
18893;SDS011;9579;49.488;8.226;2023-08-17T07:15:35;14.93;;;13.57;;
18893;SDS011;9579;49.488;8.226;2023-08-17T07:18:22;15.18;;;13.88;;
18893;SDS011;9579;49.488;8.226;2023-08-17T07:21:09;13.75;;;12.48;;
18893;SDS011;9579;49.488;8.226;2023-08-17T07:23:56;14.10;;;12.90;;
18893;SDS011;9579;49.488;8.226;2023-08-17T07:26:43;12.75;;;11.75;;
18893;SDS011;9579;49.488;8.226;2023-08-17T07:29:30;13.02;;;11.93;;
18893;SDS011;9579;49.488;8.226;2023-08-17T07:32:19;12.25;;;11.15;;
18893;SDS011;9579;49.488;8.226;2023-08-17T07:35:07;12.85;;;11.70;;
18893;SDS011;9579;49.488;8.226;2023-08-17T07:37:54;13.82;;;12.57;;
18893;SDS011;9579;49.488;8.226;2023-08-17T07:40:41;15.07;;;13.77;;
18893;SDS011;9579;49.488;8.226;2023-08-17T07:43:29;11.95;;;10.95;;
18893;SDS011;9579;49.488;8.226;2023-08-17T07:46:16;10.80;;;9.90;;
18893;SDS011;9579;49.488;8.226;2023-08-17T07:49:04;10.45;;;9.65;;
18893;SDS011;9579;49.488;8.226;2023-08-17T07:51:51;9.27;;;8.57;;
18893;SDS011;9579;49.488;8.226;2023-08-17T07:54:38;8.60;;;7.90;;
18893;SDS011;9579;49.488;8.226;2023-08-17T07:57:25;8.05;;;7.45;;
18893;SDS011;9579;49.488;8.226;2023-08-17T08:00:13;7.60;;;7.00;;
18893;SDS011;9579;49.488;8.226;2023-08-17T08:03:00;7.03;;;6.53;;
18893;SDS011;9579;49.488;8.226;2023-08-17T08:05:49;7.57;;;7.07;;
18893;SDS011;9579;49.488;8.226;2023-08-17T08:08:36;7.13;;;6.53;;
18893;SDS011;9579;49.488;8.226;2023-08-17T08:11:23;5.95;;;5.53;;
18893;SDS011;9579;49.488;8.226;2023-08-17T08:14:10;6.95;;;6.45;;
18893;SDS011;9579;49.488;8.226;2023-08-17T08:16:57;6.70;;;6.10;;
18893;SDS011;9579;49.488;8.226;2023-08-17T08:19:44;5.88;;;5.38;;
18893;SDS011;9579;49.488;8.226;2023-08-17T08:22:32;6.72;;;6.25;;
18893;SDS011;9579;49.488;8.226;2023-08-17T08:25:19;6.00;;;5.50;;
18893;SDS011;9579;49.488;8.226;2023-08-17T08:28:06;5.60;;;5.18;;
18893;SDS011;9579;49.488;8.226;2023-08-17T08:30:53;5.03;;;4.63;;
18893;SDS011;9579;49.488;8.226;2023-08-17T08:33:40;5.53;;;5.13;;
18893;SDS011;9579;49.488;8.226;2023-08-17T08:36:28;5.72;;;5.28;;
18893;SDS011;9579;49.488;8.226;2023-08-17T08:39:16;5.72;;;5.30;;
18893;SDS011;9579;49.488;8.226;2023-08-17T08:42:03;4.25;;;3.95;;
18893;SDS011;9579;49.488;8.226;2023-08-17T08:44:51;5.13;;;4.70;;
18893;SDS011;9579;49.488;8.226;2023-08-17T08:47:38;4.18;;;3.88;;
18893;SDS011;9579;49.488;8.226;2023-08-17T08:50:28;4.18;;;3.88;;
18893;SDS011;9579;49.488;8.226;2023-08-17T08:53:18;5.25;;;4.85;;
18893;SDS011;9579;49.488;8.226;2023-08-17T08:56:15;4.45;;;4.15;;
18893;SDS011;9579;49.488;8.226;2023-08-17T08:59:07;4.45;;;4.13;;
18893;SDS011;9579;49.488;8.226;2023-08-17T09:01:55;4.68;;;4.28;;
18893;SDS011;9579;49.488;8.226;2023-08-17T09:04:44;5.70;;;5.30;;
18893;SDS011;9579;49.488;8.226;2023-08-17T09:07:32;5.68;;;5.18;;
18893;SDS011;9579;49.488;8.226;2023-08-17T09:10:19;5.13;;;4.72;;
18893;SDS011;9579;49.488;8.226;2023-08-17T09:13:08;7.32;;;6.68;;
18893;SDS011;9579;49.488;8.226;2023-08-17T09:15:57;6.22;;;5.72;;
18893;SDS011;9579;49.488;8.226;2023-08-17T09:18:46;6.78;;;5.90;;
18893;SDS011;9579;49.488;8.226;2023-08-17T09:21:33;7.55;;;6.85;;
18893;SDS011;9579;49.488;8.226;2023-08-17T09:24:20;6.57;;;6.07;;
18893;SDS011;9579;49.488;8.226;2023-08-17T09:27:07;5.90;;;5.40;;
18893;SDS011;9579;49.488;8.226;2023-08-17T09:30:02;5.80;;;5.30;;
18893;SDS011;9579;49.488;8.226;2023-08-17T09:32:50;4.93;;;4.53;;
18893;SDS011;9579;49.488;8.226;2023-08-17T09:35:38;6.63;;;6.07;;
18893;SDS011;9579;49.488;8.226;2023-08-17T09:38:28;5.78;;;5.28;;
18893;SDS011;9579;49.488;8.226;2023-08-17T09:41:15;5.40;;;5.00;;
18893;SDS011;9579;49.488;8.226;2023-08-17T09:44:02;5.18;;;4.72;;
18893;SDS011;9579;49.488;8.226;2023-08-17T09:46:53;4.28;;;3.97;;
18893;SDS011;9579;49.488;8.226;2023-08-17T09:49:42;4.72;;;4.32;;
18893;SDS011;9579;49.488;8.226;2023-08-17T09:52:28;5.35;;;4.90;;
18893;SDS011;9579;49.488;8.226;2023-08-17T09:55:16;6.35;;;5.85;;
18893;SDS011;9579;49.488;8.226;2023-08-17T09:58:03;4.43;;;4.13;;
18893;SDS011;9579;49.488;8.226;2023-08-17T10:00:50;4.72;;;4.43;;
18893;SDS011;9579;49.488;8.226;2023-08-17T10:03:39;5.20;;;4.90;;
18893;SDS011;9579;49.488;8.226;2023-08-17T10:06:30;4.43;;;4.13;;
18893;SDS011;9579;49.488;8.226;2023-08-17T10:09:24;4.90;;;4.50;;
18893;SDS011;9579;49.488;8.226;2023-08-17T10:12:15;4.50;;;4.10;;
18893;SDS011;9579;49.488;8.226;2023-08-17T10:15:03;4.55;;;4.25;;
18893;SDS011;9579;49.488;8.226;2023-08-17T10:17:55;4.70;;;4.30;;
18893;SDS011;9579;49.488;8.226;2023-08-17T10:20:52;5.65;;;5.25;;
18893;SDS011;9579;49.488;8.226;2023-08-17T10:23:47;5.15;;;4.75;;
18893;SDS011;9579;49.488;8.226;2023-08-17T10:26:34;3.90;;;3.70;;
18893;SDS011;9579;49.488;8.226;2023-08-17T10:29:22;4.20;;;3.90;;
18893;SDS011;9579;49.488;8.226;2023-08-17T10:32:10;5.25;;;4.75;;
18893;SDS011;9579;49.488;8.226;2023-08-17T10:34:58;4.10;;;3.80;;
18893;SDS011;9579;49.488;8.226;2023-08-17T10:37:47;4.20;;;3.90;;
18893;SDS011;9579;49.488;8.226;2023-08-17T10:40:35;3.95;;;3.67;;
18893;SDS011;9579;49.488;8.226;2023-08-17T10:43:22;3.95;;;3.60;;
18893;SDS011;9579;49.488;8.226;2023-08-17T10:46:19;4.18;;;3.88;;
18893;SDS011;9579;49.488;8.226;2023-08-17T10:49:06;3.55;;;3.25;;
18893;SDS011;9579;49.488;8.226;2023-08-17T10:52:10;3.63;;;3.33;;
18893;SDS011;9579;49.488;8.226;2023-08-17T10:55:03;4.00;;;3.70;;
18893;SDS011;9579;49.488;8.226;2023-08-17T10:57:52;3.50;;;3.30;;
18893;SDS011;9579;49.488;8.226;2023-08-17T11:00:39;3.28;;;2.97;;
18893;SDS011;9579;49.488;8.226;2023-08-17T11:03:27;3.50;;;3.20;;
18893;SDS011;9579;49.488;8.226;2023-08-17T11:06:15;3.60;;;3.30;;
18893;SDS011;9579;49.488;8.226;2023-08-17T11:09:05;3.60;;;3.30;;
18893;SDS011;9579;49.488;8.226;2023-08-17T11:11:55;4.10;;;3.80;;
18893;SDS011;9579;49.488;8.226;2023-08-17T11:14:46;3.55;;;3.30;;
18893;SDS011;9579;49.488;8.226;2023-08-17T11:17:33;3.40;;;3.20;;
18893;SDS011;9579;49.488;8.226;2023-08-17T11:20:22;3.58;;;3.30;;
18893;SDS011;9579;49.488;8.226;2023-08-17T11:23:10;3.40;;;3.10;;
18893;SDS011;9579;49.488;8.226;2023-08-17T11:25:57;3.50;;;3.20;;
18893;SDS011;9579;49.488;8.226;2023-08-17T11:28:45;3.22;;;2.92;;
18893;SDS011;9579;49.488;8.226;2023-08-17T11:31:33;3.83;;;3.38;;
18893;SDS011;9579;49.488;8.226;2023-08-17T11:34:20;3.42;;;3.13;;
18893;SDS011;9579;49.488;8.226;2023-08-17T11:37:07;3.47;;;3.17;;
18893;SDS011;9579;49.488;8.226;2023-08-17T11:39:59;3.25;;;3.05;;
18893;SDS011;9579;49.488;8.226;2023-08-17T11:42:46;3.42;;;3.20;;
18893;SDS011;9579;49.488;8.226;2023-08-17T11:45:35;3.33;;;3.10;;
18893;SDS011;9579;49.488;8.226;2023-08-17T11:48:23;3.45;;;3.15;;
18893;SDS011;9579;49.488;8.226;2023-08-17T11:51:11;3.20;;;3.00;;
18893;SDS011;9579;49.488;8.226;2023-08-17T11:53:58;3.53;;;3.33;;
18893;SDS011;9579;49.488;8.226;2023-08-17T11:56:46;4.38;;;3.50;;
18893;SDS011;9579;49.488;8.226;2023-08-17T11:59:33;3.55;;;3.20;;
18893;SDS011;9579;49.488;8.226;2023-08-17T12:02:22;3.65;;;3.20;;
18893;SDS011;9579;49.488;8.226;2023-08-17T12:05:10;3.70;;;3.40;;
18893;SDS011;9579;49.488;8.226;2023-08-17T12:07:57;3.50;;;3.30;;
18893;SDS011;9579;49.488;8.226;2023-08-17T12:10:46;2.90;;;2.70;;
18893;SDS011;9579;49.488;8.226;2023-08-17T12:13:33;3.25;;;2.95;;
18893;SDS011;9579;49.488;8.226;2023-08-17T12:16:21;3.63;;;3.10;;
18893;SDS011;9579;49.488;8.226;2023-08-17T12:19:10;3.70;;;3.10;;
18893;SDS011;9579;49.488;8.226;2023-08-17T12:21:58;3.17;;;2.97;;
18893;SDS011;9579;49.488;8.226;2023-08-17T12:24:45;3.10;;;2.90;;
18893;SDS011;9579;49.488;8.226;2023-08-17T12:27:34;3.65;;;3.00;;
18893;SDS011;9579;49.488;8.226;2023-08-17T12:30:24;4.15;;;3.08;;
18893;SDS011;9579;49.488;8.226;2023-08-17T12:33:12;3.42;;;3.22;;
18893;SDS011;9579;49.488;8.226;2023-08-17T12:36:01;3.60;;;3.30;;
18893;SDS011;9579;49.488;8.226;2023-08-17T12:38:49;3.10;;;2.90;;
18893;SDS011;9579;49.488;8.226;2023-08-17T12:41:36;2.80;;;2.60;;
18893;SDS011;9579;49.488;8.226;2023-08-17T12:44:23;2.78;;;2.67;;
18893;SDS011;9579;49.488;8.226;2023-08-17T12:47:10;3.33;;;3.03;;
18893;SDS011;9579;49.488;8.226;2023-08-17T12:49:57;3.58;;;3.28;;
18893;SDS011;9579;49.488;8.226;2023-08-17T12:52:47;4.32;;;3.45;;
18893;SDS011;9579;49.488;8.226;2023-08-17T12:55:34;3.33;;;3.03;;
18893;SDS011;9579;49.488;8.226;2023-08-17T12:58:21;3.50;;;3.20;;
18893;SDS011;9579;49.488;8.226;2023-08-17T13:01:08;3.30;;;3.03;;
18893;SDS011;9579;49.488;8.226;2023-08-17T13:03:55;3.50;;;3.20;;
18893;SDS011;9579;49.488;8.226;2023-08-17T13:06:42;3.00;;;2.70;;
18893;SDS011;9579;49.488;8.226;2023-08-17T13:09:31;3.10;;;2.90;;
18893;SDS011;9579;49.488;8.226;2023-08-17T13:12:18;3.00;;;2.80;;
18893;SDS011;9579;49.488;8.226;2023-08-17T13:15:05;3.00;;;2.80;;
18893;SDS011;9579;49.488;8.226;2023-08-17T13:17:53;3.28;;;3.00;;
18893;SDS011;9579;49.488;8.226;2023-08-17T13:20:40;3.28;;;2.97;;
18893;SDS011;9579;49.488;8.226;2023-08-17T13:23:27;3.10;;;2.90;;
18893;SDS011;9579;49.488;8.226;2023-08-17T13:26:15;3.17;;;2.92;;
18893;SDS011;9579;49.488;8.226;2023-08-17T13:29:03;3.47;;;3.20;;
18893;SDS011;9579;49.488;8.226;2023-08-17T13:31:50;3.60;;;3.40;;
18893;SDS011;9579;49.488;8.226;2023-08-17T13:34:37;3.67;;;3.40;;
18893;SDS011;9579;49.488;8.226;2023-08-17T13:37:24;3.60;;;3.30;;
18893;SDS011;9579;49.488;8.226;2023-08-17T13:40:13;3.80;;;3.53;;
18893;SDS011;9579;49.488;8.226;2023-08-17T13:43:01;3.30;;;3.10;;
18893;SDS011;9579;49.488;8.226;2023-08-17T13:45:48;3.47;;;3.17;;
18893;SDS011;9579;49.488;8.226;2023-08-17T13:48:35;3.58;;;3.38;;
18893;SDS011;9579;49.488;8.226;2023-08-17T13:51:24;3.97;;;3.67;;
18893;SDS011;9579;49.488;8.226;2023-08-17T13:54:11;3.40;;;3.20;;
18893;SDS011;9579;49.488;8.226;2023-08-17T13:56:58;3.85;;;3.55;;
18893;SDS011;9579;49.488;8.226;2023-08-17T13:59:46;3.85;;;3.42;;
18893;SDS011;9579;49.488;8.226;2023-08-17T14:02:33;3.88;;;3.58;;
18893;SDS011;9579;49.488;8.226;2023-08-17T14:05:21;3.63;;;3.35;;
18893;SDS011;9579;49.488;8.226;2023-08-17T14:08:07;3.50;;;3.30;;
18893;SDS011;9579;49.488;8.226;2023-08-17T14:10:56;3.78;;;3.40;;
18893;SDS011;9579;49.488;8.226;2023-08-17T14:13:43;3.35;;;3.10;;
18893;SDS011;9579;49.488;8.226;2023-08-17T14:16:31;3.45;;;3.22;;
18893;SDS011;9579;49.488;8.226;2023-08-17T14:19:18;3.88;;;3.63;;
18893;SDS011;9579;49.488;8.226;2023-08-17T14:22:05;4.05;;;3.75;;
18893;SDS011;9579;49.488;8.226;2023-08-17T14:24:52;4.00;;;3.70;;
18893;SDS011;9579;49.488;8.226;2023-08-17T14:27:39;3.85;;;3.50;;
18893;SDS011;9579;49.488;8.226;2023-08-17T14:30:27;3.95;;;3.65;;
18893;SDS011;9579;49.488;8.226;2023-08-17T14:33:16;4.50;;;4.00;;
18893;SDS011;9579;49.488;8.226;2023-08-17T14:36:03;4.25;;;3.83;;
18893;SDS011;9579;49.488;8.226;2023-08-17T14:38:50;4.63;;;4.25;;
18893;SDS011;9579;49.488;8.226;2023-08-17T14:41:37;5.18;;;4.40;;
18893;SDS011;9579;49.488;8.226;2023-08-17T14:44:24;4.50;;;4.10;;
18893;SDS011;9579;49.488;8.226;2023-08-17T14:47:11;4.38;;;4.07;;
18893;SDS011;9579;49.488;8.226;2023-08-17T14:49:59;4.50;;;4.20;;
18893;SDS011;9579;49.488;8.226;2023-08-17T14:52:46;4.22;;;3.92;;
18893;SDS011;9579;49.488;8.226;2023-08-17T14:55:34;4.07;;;3.78;;
18893;SDS011;9579;49.488;8.226;2023-08-17T14:58:21;4.85;;;4.35;;
18893;SDS011;9579;49.488;8.226;2023-08-17T15:01:08;4.80;;;4.50;;
18893;SDS011;9579;49.488;8.226;2023-08-17T15:03:55;4.60;;;4.20;;
18893;SDS011;9579;49.488;8.226;2023-08-17T15:06:45;4.28;;;3.97;;
18893;SDS011;9579;49.488;8.226;2023-08-17T15:09:32;4.90;;;4.50;;
18893;SDS011;9579;49.488;8.226;2023-08-17T15:12:19;4.07;;;3.78;;
18893;SDS011;9579;49.488;8.226;2023-08-17T15:15:06;3.97;;;3.67;;
18893;SDS011;9579;49.488;8.226;2023-08-17T15:17:54;3.75;;;3.45;;
18893;SDS011;9579;49.488;8.226;2023-08-17T15:20:41;4.30;;;3.90;;
18893;SDS011;9579;49.488;8.226;2023-08-17T15:23:29;4.38;;;4.07;;
18893;SDS011;9579;49.488;8.226;2023-08-17T15:26:17;4.32;;;4.00;;
18893;SDS011;9579;49.488;8.226;2023-08-17T15:29:04;4.53;;;4.22;;
18893;SDS011;9579;49.488;8.226;2023-08-17T15:31:51;3.85;;;3.55;;
18893;SDS011;9579;49.488;8.226;2023-08-17T15:34:38;4.10;;;3.80;;
18893;SDS011;9579;49.488;8.226;2023-08-17T15:37:25;3.70;;;3.45;;
18893;SDS011;9579;49.488;8.226;2023-08-17T15:40:15;4.32;;;4.03;;
18893;SDS011;9579;49.488;8.226;2023-08-17T15:43:02;4.15;;;3.83;;
18893;SDS011;9579;49.488;8.226;2023-08-17T15:45:49;4.50;;;4.10;;
18893;SDS011;9579;49.488;8.226;2023-08-17T15:48:38;4.40;;;4.10;;
18893;SDS011;9579;49.488;8.226;2023-08-17T15:51:25;4.60;;;4.22;;
18893;SDS011;9579;49.488;8.226;2023-08-17T15:54:13;4.40;;;4.10;;
18893;SDS011;9579;49.488;8.226;2023-08-17T15:57:01;3.88;;;3.67;;
18893;SDS011;9579;49.488;8.226;2023-08-17T15:59:48;4.07;;;3.80;;
18893;SDS011;9579;49.488;8.226;2023-08-17T16:02:37;4.07;;;3.78;;
18893;SDS011;9579;49.488;8.226;2023-08-17T16:05:24;4.30;;;4.00;;
18893;SDS011;9579;49.488;8.226;2023-08-17T16:08:11;4.55;;;4.25;;
18893;SDS011;9579;49.488;8.226;2023-08-17T16:10:58;3.88;;;3.67;;
18893;SDS011;9579;49.488;8.226;2023-08-17T16:13:47;4.40;;;3.95;;
18893;SDS011;9579;49.488;8.226;2023-08-17T16:16:34;4.32;;;4.05;;
18893;SDS011;9579;49.488;8.226;2023-08-17T16:19:21;4.30;;;4.00;;
18893;SDS011;9579;49.488;8.226;2023-08-17T16:22:08;4.47;;;4.18;;
18893;SDS011;9579;49.488;8.226;2023-08-17T16:24:55;4.13;;;3.83;;
18893;SDS011;9579;49.488;8.226;2023-08-17T16:27:42;4.47;;;4.18;;
18893;SDS011;9579;49.488;8.226;2023-08-17T16:30:30;4.10;;;3.80;;
18893;SDS011;9579;49.488;8.226;2023-08-17T16:33:20;4.25;;;3.88;;
18893;SDS011;9579;49.488;8.226;2023-08-17T16:36:08;4.47;;;4.18;;
18893;SDS011;9579;49.488;8.226;2023-08-17T16:38:55;3.90;;;3.60;;
18893;SDS011;9579;49.488;8.226;2023-08-17T16:41:42;3.95;;;3.60;;
18893;SDS011;9579;49.488;8.226;2023-08-17T16:44:29;3.70;;;3.50;;
18893;SDS011;9579;49.488;8.226;2023-08-17T16:47:17;3.95;;;3.65;;
18893;SDS011;9579;49.488;8.226;2023-08-17T16:50:05;3.78;;;3.58;;
18893;SDS011;9579;49.488;8.226;2023-08-17T16:52:54;3.90;;;3.50;;
18893;SDS011;9579;49.488;8.226;2023-08-17T16:55:41;3.85;;;3.55;;
18893;SDS011;9579;49.488;8.226;2023-08-17T16:58:28;3.70;;;3.40;;
18893;SDS011;9579;49.488;8.226;2023-08-17T17:01:15;3.60;;;3.30;;
18893;SDS011;9579;49.488;8.226;2023-08-17T17:04:04;3.20;;;3.00;;